Time;durP1;ratioP1;P1;durP2;ratioP2;P2;SDS_P1;SDS_P2;PMS_P1;PMS_P2;Temp;Humidity;BMP_temperature;BMP_pressure;BME280_temperature;BME280_humidity;BME280_pressure;Samples;Min_cycle;Max_cycle;Signal;HPM_P1;HPM_P2
2023/12/12 00:00:47;;;;;;;12.77;4.63;;;;;;;;;;5145563;27;20069;-58
2023/12/12 00:03:14;;;;;;;13.63;4.63;;;;;;;;;;5147368;27;20078;-58
2023/12/12 00:05:41;;;;;;;12.05;4.63;;;;;;;;;;5144333;27;20055;-57
2023/12/12 00:08:07;;;;;;;8.13;3.78;;;;;;;;;;5143941;27;20051;-56
2023/12/12 00:10:33;;;;;;;8.13;3.83;;;;;;;;;;5141369;27;20059;-57
2023/12/12 00:13:00;;;;;;;7.80;3.88;;;;;;;;;;5146651;27;20055;-57
2023/12/12 00:15:26;;;;;;;8.60;3.55;;;;;;;;;;5145293;27;20055;-56
2023/12/12 00:17:53;;;;;;;8.65;3.65;;;;;;;;;;5146087;27;20142;-56
2023/12/12 00:20:20;;;;;;;8.52;3.58;;;;;;;;;;5144659;27;20135;-58
2023/12/12 00:22:46;;;;;;;6.60;3.20;;;;;;;;;;5144281;27;20091;-57
2023/12/12 00:25:13;;;;;;;10.43;4.20;;;;;;;;;;5147419;27;20617;-57
2023/12/12 00:27:39;;;;;;;10.05;3.70;;;;;;;;;;5146279;27;20050;-59
2023/12/12 00:30:06;;;;;;;13.65;4.40;;;;;;;;;;5146755;27;20054;-59
2023/12/12 00:32:34;;;;;;;9.23;4.03;;;;;;;;;;5139510;27;20051;-56
2023/12/12 00:35:00;;;;;;;6.93;3.53;;;;;;;;;;5127458;27;20598;-58
2023/12/12 00:37:26;;;;;;;8.95;4.00;;;;;;;;;;5146544;27;20054;-58
2023/12/12 00:39:53;;;;;;;8.75;4.78;;;;;;;;;;5145193;27;20055;-57
2023/12/12 00:42:19;;;;;;;15.45;4.50;;;;;;;;;;5145022;27;20055;-58
2023/12/12 00:44:47;;;;;;;11.93;4.55;;;;;;;;;;5141219;27;20726;-57
2023/12/12 00:47:13;;;;;;;14.60;4.47;;;;;;;;;;5142862;27;20049;-58
2023/12/12 00:49:39;;;;;;;12.52;5.13;;;;;;;;;;5142357;27;20055;-59
2023/12/12 00:52:07;;;;;;;12.70;4.32;;;;;;;;;;5144371;27;20143;-58
2023/12/12 00:54:33;;;;;;;10.90;4.05;;;;;;;;;;5146017;27;20058;-57
2023/12/12 00:56:59;;;;;;;9.48;4.82;;;;;;;;;;5145707;27;20525;-59
2023/12/12 00:59:26;;;;;;;13.43;4.75;;;;;;;;;;5145009;27;20533;-58
2023/12/12 01:01:52;;;;;;;10.27;3.63;;;;;;;;;;5143541;27;20576;-58
2023/12/12 01:04:19;;;;;;;12.73;3.80;;;;;;;;;;5142600;27;20043;-58
2023/12/12 01:06:45;;;;;;;8.98;3.70;;;;;;;;;;5146138;27;20539;-58
2023/12/12 01:09:12;;;;;;;8.38;3.60;;;;;;;;;;5146179;27;20055;-59
2023/12/12 01:11:38;;;;;;;13.70;4.70;;;;;;;;;;5144771;27;20537;-58
2023/12/12 01:14:04;;;;;;;19.70;4.53;;;;;;;;;;5145413;27;20051;-58
2023/12/12 01:16:31;;;;;;;13.15;5.78;;;;;;;;;;5142821;27;20058;-58
2023/12/12 01:18:57;;;;;;;11.18;3.33;;;;;;;;;;5124857;27;20055;-57
2023/12/12 01:21:24;;;;;;;14.90;3.65;;;;;;;;;;5143716;27;20050;-58
2023/12/12 01:23:51;;;;;;;8.65;3.10;;;;;;;;;;5132294;27;20146;-57
2023/12/12 01:26:19;;;;;;;9.48;3.00;;;;;;;;;;5145184;27;20051;-57
2023/12/12 01:28:45;;;;;;;8.43;2.60;;;;;;;;;;5145685;27;20134;-57
2023/12/12 01:31:12;;;;;;;15.05;3.72;;;;;;;;;;5145123;27;20055;-57
2023/12/12 01:33:38;;;;;;;9.93;2.42;;;;;;;;;;5144696;27;20148;-57
2023/12/12 01:36:05;;;;;;;9.48;2.95;;;;;;;;;;5142271;27;20564;-56
2023/12/12 01:38:31;;;;;;;13.48;3.22;;;;;;;;;;5144903;27;20083;-56
2023/12/12 01:40:58;;;;;;;9.27;2.83;;;;;;;;;;5143962;27;20096;-58
2023/12/12 01:43:24;;;;;;;14.63;5.28;;;;;;;;;;5145482;27;20075;-58
2023/12/12 01:45:51;;;;;;;12.15;3.55;;;;;;;;;;5145389;27;20103;-58
2023/12/12 01:48:18;;;;;;;9.63;3.30;;;;;;;;;;5146040;27;20142;-58
2023/12/12 01:50:44;;;;;;;11.10;3.55;;;;;;;;;;5138427;27;20202;-58
2023/12/12 01:53:13;;;;;;;10.13;3.97;;;;;;;;;;5145878;27;20102;-59
2023/12/12 01:55:39;;;;;;;9.27;3.40;;;;;;;;;;5127843;27;20055;-58
2023/12/12 01:58:06;;;;;;;7.50;3.72;;;;;;;;;;5130565;27;20044;-58
2023/12/12 02:00:32;;;;;;;6.65;3.13;;;;;;;;;;5139748;27;20079;-57
2023/12/12 02:02:59;;;;;;;10.30;3.78;;;;;;;;;;5132721;27;20558;-58
2023/12/12 02:05:25;;;;;;;13.13;3.72;;;;;;;;;;5145288;27;20047;-58
2023/12/12 02:07:52;;;;;;;8.23;3.25;;;;;;;;;;5144011;27;20142;-57
2023/12/12 02:10:19;;;;;;;7.88;3.22;;;;;;;;;;5142780;27;20147;-58
2023/12/12 02:12:45;;;;;;;7.57;3.03;;;;;;;;;;5143058;27;20047;-58
2023/12/12 02:15:12;;;;;;;10.10;3.03;;;;;;;;;;5145605;27;20164;-57
2023/12/12 02:17:38;;;;;;;8.88;3.63;;;;;;;;;;5142820;27;20051;-58
2023/12/12 02:20:05;;;;;;;8.93;3.15;;;;;;;;;;5145640;27;20083;-58
2023/12/12 02:22:31;;;;;;;7.65;2.88;;;;;;;;;;5144340;27;20058;-59
2023/12/12 02:24:58;;;;;;;9.38;2.97;;;;;;;;;;5141579;27;20212;-58
2023/12/12 02:27:24;;;;;;;8.27;2.97;;;;;;;;;;5143815;27;20052;-59
2023/12/12 02:29:51;;;;;;;6.70;2.85;;;;;;;;;;5142582;27;20054;-59
2023/12/12 02:32:19;;;;;;;6.80;2.83;;;;;;;;;;5147380;27;20047;-57
2023/12/12 02:34:46;;;;;;;5.70;3.05;;;;;;;;;;5146910;27;20552;-58
2023/12/12 02:37:12;;;;;;;6.90;3.30;;;;;;;;;;5145287;27;20043;-59
2023/12/12 02:39:41;;;;;;;9.50;3.55;;;;;;;;;;5147837;27;20054;-57
2023/12/12 02:42:08;;;;;;;7.03;3.42;;;;;;;;;;5148248;27;20051;-55
2023/12/12 02:44:34;;;;;;;13.93;2.70;;;;;;;;;;5148242;27;20593;-56
2023/12/12 02:47:00;;;;;;;22.08;3.65;;;;;;;;;;5148811;27;20053;-56
2023/12/12 02:49:26;;;;;;;6.63;2.72;;;;;;;;;;5145930;27;20125;-58
2023/12/12 02:51:53;;;;;;;6.85;3.28;;;;;;;;;;5148784;27;20059;-57
2023/12/12 02:54:19;;;;;;;4.15;2.90;;;;;;;;;;5139831;27;20060;-56
2023/12/12 02:56:46;;;;;;;5.90;3.45;;;;;;;;;;5146437;27;20047;-57
2023/12/12 02:59:12;;;;;;;12.82;4.07;;;;;;;;;;5143318;27;20046;-56
2023/12/12 03:01:39;;;;;;;14.77;5.35;;;;;;;;;;5145816;27;20108;-57
2023/12/12 03:04:05;;;;;;;8.30;4.38;;;;;;;;;;5146350;27;20123;-56
2023/12/12 03:06:32;;;;;;;12.07;5.30;;;;;;;;;;5145893;27;20238;-55
2023/12/12 03:08:58;;;;;;;16.50;5.85;;;;;;;;;;5148391;27;20170;-53
2023/12/12 03:11:24;;;;;;;14.52;7.47;;;;;;;;;;5147145;27;20603;-57
2023/12/12 03:13:51;;;;;;;15.13;6.97;;;;;;;;;;5146247;27;20420;-56
2023/12/12 03:16:17;;;;;;;14.05;6.80;;;;;;;;;;5144738;27;20055;-57
2023/12/12 03:18:44;;;;;;;18.88;6.80;;;;;;;;;;5148289;27;20046;-55
2023/12/12 03:21:10;;;;;;;10.80;5.55;;;;;;;;;;5147271;27;20054;-56
2023/12/12 03:23:37;;;;;;;13.77;6.50;;;;;;;;;;5147558;27;20051;-59
2023/12/12 03:26:08;;;;;;;12.15;6.75;;;;;;;;;;5145542;27;20146;-54
2023/12/12 03:28:35;;;;;;;11.48;7.45;;;;;;;;;;5146980;27;20063;-57
2023/12/12 03:31:03;;;;;;;15.90;8.07;;;;;;;;;;5146433;27;20047;-55
2023/12/12 03:33:29;;;;;;;15.48;7.53;;;;;;;;;;5144279;27;20445;-56
2023/12/12 03:35:56;;;;;;;16.75;8.18;;;;;;;;;;5147191;27;20055;-56
2023/12/12 03:38:22;;;;;;;16.33;8.35;;;;;;;;;;5146364;27;20043;-57
2023/12/12 03:40:51;;;;;;;18.38;9.25;;;;;;;;;;5145681;27;20515;-57
2023/12/12 03:43:18;;;;;;;23.63;9.90;;;;;;;;;;5147214;27;20059;-55
2023/12/12 03:45:44;;;;;;;20.58;9.43;;;;;;;;;;5147982;27;20130;-56
2023/12/12 03:48:11;;;;;;;18.70;9.45;;;;;;;;;;5147382;27;20213;-57
2023/12/12 03:50:37;;;;;;;27.45;10.82;;;;;;;;;;5145351;27;20775;-57
2023/12/12 03:53:03;;;;;;;20.85;10.27;;;;;;;;;;5146770;27;20477;-58
2023/12/12 03:55:30;;;;;;;17.35;9.27;;;;;;;;;;5141087;27;20058;-58
2023/12/12 03:57:56;;;;;;;14.98;10.32;;;;;;;;;;5138510;27;20046;-57
2023/12/12 04:00:23;;;;;;;21.13;9.75;;;;;;;;;;5137393;27;20120;-57
2023/12/12 04:02:50;;;;;;;20.60;10.73;;;;;;;;;;5139610;27;20059;-59
2023/12/12 04:05:16;;;;;;;23.73;10.18;;;;;;;;;;5139633;27;20138;-57
2023/12/12 04:07:43;;;;;;;21.25;10.50;;;;;;;;;;5140094;27;20053;-58
2023/12/12 04:10:09;;;;;;;21.20;11.07;;;;;;;;;;5143380;27;20104;-58
2023/12/12 04:12:36;;;;;;;20.20;11.15;;;;;;;;;;5145663;27;20242;-57
2023/12/12 04:15:03;;;;;;;23.42;11.07;;;;;;;;;;5145494;27;20051;-59
2023/12/12 04:17:30;;;;;;;22.98;11.60;;;;;;;;;;5141020;27;20108;-57
2023/12/12 04:19:57;;;;;;;24.35;12.63;;;;;;;;;;5146381;27;20723;-55
2023/12/12 04:22:23;;;;;;;26.80;12.82;;;;;;;;;;5146296;27;20051;-57
2023/12/12 04:24:49;;;;;;;22.45;12.27;;;;;;;;;;5144092;27;20058;-58
2023/12/12 04:27:16;;;;;;;27.80;12.77;;;;;;;;;;5144718;27;20090;-58
2023/12/12 04:29:43;;;;;;;26.05;13.23;;;;;;;;;;5145266;27;20063;-57
2023/12/12 04:32:09;;;;;;;27.42;13.48;;;;;;;;;;5143523;27;20058;-58
2023/12/12 04:34:35;;;;;;;32.95;16.00;;;;;;;;;;5144920;27;20056;-58
2023/12/12 04:37:02;;;;;;;29.20;15.90;;;;;;;;;;5144189;27;20047;-58
2023/12/12 04:39:29;;;;;;;30.83;16.23;;;;;;;;;;5146545;27;20617;-58
2023/12/12 04:41:55;;;;;;;28.25;13.52;;;;;;;;;;5139501;27;20519;-56
2023/12/12 04:44:21;;;;;;;22.48;13.32;;;;;;;;;;5145039;27;20097;-56
2023/12/12 04:46:48;;;;;;;28.13;15.20;;;;;;;;;;5145923;27;20055;-58
2023/12/12 04:49:15;;;;;;;28.17;14.48;;;;;;;;;;5137403;27;20055;-56
2023/12/12 04:51:41;;;;;;;32.70;16.58;;;;;;;;;;5132667;27;20074;-57
2023/12/12 04:54:08;;;;;;;27.55;14.98;;;;;;;;;;5145736;27;20112;-57
2023/12/12 04:56:34;;;;;;;33.38;15.90;;;;;;;;;;5132916;27;20055;-58
2023/12/12 04:59:01;;;;;;;29.05;14.48;;;;;;;;;;5140319;27;20055;-56
2023/12/12 05:01:27;;;;;;;25.30;15.52;;;;;;;;;;5129804;27;20059;-58
2023/12/12 05:03:53;;;;;;;29.00;15.43;;;;;;;;;;5133933;27;20047;-58
2023/12/12 05:06:20;;;;;;;30.52;15.20;;;;;;;;;;5129258;27;20504;-58
2023/12/12 05:08:47;;;;;;;30.63;15.15;;;;;;;;;;5139725;27;20052;-56
2023/12/12 05:11:14;;;;;;;28.35;15.48;;;;;;;;;;5130726;27;20057;-57
2023/12/12 05:13:40;;;;;;;26.45;15.68;;;;;;;;;;5131685;27;20532;-57
2023/12/12 05:16:07;;;;;;;25.55;15.55;;;;;;;;;;5126374;27;20052;-57
2023/12/12 05:18:54;;;;;;;35.65;15.73;;;;;;;;;;5146224;27;20055;-55
2023/12/12 05:21:21;;;;;;;28.75;16.17;;;;;;;;;;5146039;27;20056;-58
2023/12/12 05:23:48;;;;;;;35.03;16.40;;;;;;;;;;5146062;27;20077;-58
2023/12/12 05:26:15;;;;;;;22.88;14.75;;;;;;;;;;5146282;27;20138;-56
2023/12/12 05:28:42;;;;;;;30.73;16.08;;;;;;;;;;5142214;27;20164;-56
2023/12/12 05:31:08;;;;;;;37.83;16.83;;;;;;;;;;5125225;27;20083;-56
2023/12/12 05:33:35;;;;;;;29.35;15.13;;;;;;;;;;5136880;27;20059;-57
2023/12/12 05:36:01;;;;;;;32.00;14.73;;;;;;;;;;5144974;27;20047;-55
2023/12/12 05:38:28;;;;;;;26.05;15.07;;;;;;;;;;5144537;27;20051;-58
2023/12/12 05:40:56;;;;;;;32.85;15.30;;;;;;;;;;5144392;27;20108;-57
2023/12/12 05:43:22;;;;;;;25.60;15.13;;;;;;;;;;5146435;27;20561;-57
2023/12/12 05:45:49;;;;;;;34.88;15.80;;;;;;;;;;5145727;27;20062;-57
2023/12/12 05:48:16;;;;;;;33.15;15.77;;;;;;;;;;5147361;27;20055;-54
2023/12/12 05:50:43;;;;;;;29.05;16.13;;;;;;;;;;5144567;27;21041;-57
2023/12/12 05:53:09;;;;;;;28.05;14.70;;;;;;;;;;5143332;27;20452;-56
2023/12/12 05:55:35;;;;;;;29.83;15.40;;;;;;;;;;5145459;27;20051;-56
2023/12/12 05:58:02;;;;;;;26.92;15.55;;;;;;;;;;5135714;27;20051;-56
2023/12/12 06:00:29;;;;;;;35.70;15.88;;;;;;;;;;5124796;27;20129;-56
2023/12/12 06:02:55;;;;;;;34.20;16.67;;;;;;;;;;5124598;27;20052;-57
2023/12/12 06:05:22;;;;;;;30.75;15.07;;;;;;;;;;5123552;27;20571;-57
2023/12/12 06:07:48;;;;;;;32.15;16.40;;;;;;;;;;5135646;27;20047;-57
2023/12/12 06:10:15;;;;;;;32.67;15.85;;;;;;;;;;5141799;27;20512;-55
2023/12/12 06:12:42;;;;;;;31.05;15.30;;;;;;;;;;5124969;27;20090;-56
2023/12/12 06:15:09;;;;;;;33.40;16.27;;;;;;;;;;5124635;27;20138;-57
2023/12/12 06:17:35;;;;;;;37.22;15.95;;;;;;;;;;5124534;27;20075;-57
2023/12/12 06:20:02;;;;;;;33.92;16.13;;;;;;;;;;5135519;27;20090;-58
2023/12/12 06:22:29;;;;;;;32.38;16.00;;;;;;;;;;5144850;27;20537;-57
2023/12/12 06:24:55;;;;;;;42.45;16.85;;;;;;;;;;5131703;27;20056;-57
2023/12/12 06:27:22;;;;;;;42.63;16.92;;;;;;;;;;5129763;27;20151;-55
2023/12/12 06:29:50;;;;;;;37.00;17.55;;;;;;;;;;5129479;27;20044;-57
2023/12/12 06:32:17;;;;;;;40.42;17.02;;;;;;;;;;5145145;27;20055;-55
2023/12/12 06:34:43;;;;;;;42.88;17.77;;;;;;;;;;5132896;27;20575;-57
2023/12/12 06:37:10;;;;;;;47.13;18.13;;;;;;;;;;5124212;27;20055;-58
2023/12/12 06:39:37;;;;;;;45.90;18.33;;;;;;;;;;5123702;27;21011;-57
2023/12/12 06:42:04;;;;;;;48.50;17.58;;;;;;;;;;5138735;27;20051;-56
2023/12/12 06:44:30;;;;;;;45.85;16.83;;;;;;;;;;5143043;27;20055;-57
2023/12/12 06:46:57;;;;;;;46.50;18.30;;;;;;;;;;5138608;27;20051;-58
2023/12/12 06:49:24;;;;;;;44.20;17.17;;;;;;;;;;5145717;27;20566;-56
2023/12/12 06:51:50;;;;;;;47.20;18.50;;;;;;;;;;5160093;27;20051;-56
2023/12/12 06:54:16;;;;;;;47.38;17.88;;;;;;;;;;5143621;27;20586;-58
2023/12/12 06:56:43;;;;;;;49.25;17.83;;;;;;;;;;5143088;27;20058;-56
2023/12/12 06:59:09;;;;;;;49.63;17.90;;;;;;;;;;5143645;27;20142;-56
2023/12/12 07:01:35;;;;;;;42.70;17.25;;;;;;;;;;5142832;27;20484;-55
2023/12/12 07:04:02;;;;;;;47.38;16.98;;;;;;;;;;5142310;27;20094;-56
2023/12/12 07:06:29;;;;;;;51.03;18.00;;;;;;;;;;5141396;27;20070;-55
2023/12/12 07:08:55;;;;;;;42.55;16.40;;;;;;;;;;5141968;27;20051;-58
2023/12/12 07:11:22;;;;;;;55.28;18.08;;;;;;;;;;5142873;27;20456;-57
2023/12/12 07:13:48;;;;;;;54.10;17.60;;;;;;;;;;5143500;27;20070;-55
2023/12/12 07:16:15;;;;;;;52.80;18.30;;;;;;;;;;5143911;27;20048;-57
2023/12/12 07:18:42;;;;;;;44.33;16.00;;;;;;;;;;5145769;27;20180;-58
2023/12/12 07:21:08;;;;;;;44.80;18.00;;;;;;;;;;5146504;27;20054;-58
2023/12/12 07:23:35;;;;;;;51.60;18.08;;;;;;;;;;5146585;27;20592;-56
2023/12/12 07:26:01;;;;;;;43.38;15.90;;;;;;;;;;5145331;27;20051;-53
2023/12/12 07:28:27;;;;;;;46.45;16.73;;;;;;;;;;5140693;27;20421;-54
2023/12/12 07:30:54;;;;;;;50.22;17.98;;;;;;;;;;5146161;27;20061;-56
2023/12/12 07:33:20;;;;;;;46.63;17.35;;;;;;;;;;5141676;27;20136;-56
2023/12/12 07:35:47;;;;;;;44.53;17.27;;;;;;;;;;5134151;27;20048;-53
2023/12/12 07:38:15;;;;;;;35.78;16.13;;;;;;;;;;5134045;27;20196;-54
2023/12/12 07:40:43;;;;;;;45.83;16.17;;;;;;;;;;5146108;27;20054;-56
2023/12/12 07:43:11;;;;;;;45.80;16.63;;;;;;;;;;5146374;27;20062;-56
2023/12/12 07:45:37;;;;;;;42.85;15.45;;;;;;;;;;5145087;27;20051;-56
2023/12/12 07:48:04;;;;;;;36.80;16.27;;;;;;;;;;5145715;27;20050;-56
2023/12/12 07:50:31;;;;;;;31.38;14.43;;;;;;;;;;5133503;27;20052;-57
2023/12/12 07:52:58;;;;;;;34.63;15.02;;;;;;;;;;5144833;27;20529;-56
2023/12/12 07:55:25;;;;;;;32.00;14.35;;;;;;;;;;5138421;27;20048;-56
2023/12/12 07:57:51;;;;;;;36.95;14.23;;;;;;;;;;5128591;27;20051;-58
2023/12/12 08:00:19;;;;;;;35.42;14.65;;;;;;;;;;5143313;27;20233;-57
2023/12/12 08:02:45;;;;;;;29.17;13.35;;;;;;;;;;5145615;27;20047;-58
2023/12/12 08:05:12;;;;;;;31.00;13.35;;;;;;;;;;5146459;27;20050;-57
2023/12/12 08:07:39;;;;;;;27.73;13.32;;;;;;;;;;5145224;27;20047;-56
2023/12/12 08:10:06;;;;;;;21.75;13.20;;;;;;;;;;5146756;27;20480;-57
2023/12/12 08:12:32;;;;;;;22.55;12.50;;;;;;;;;;5145346;27;20051;-57
2023/12/12 08:14:58;;;;;;;20.35;12.38;;;;;;;;;;5144798;27;20101;-57
2023/12/12 08:17:26;;;;;;;23.08;12.73;;;;;;;;;;5144518;27;20051;-57
2023/12/12 08:19:53;;;;;;;25.70;13.13;;;;;;;;;;5145711;27;20071;-55
2023/12/12 08:22:19;;;;;;;23.88;12.45;;;;;;;;;;5146482;27;20420;-57
2023/12/12 08:24:50;;;;;;;27.48;13.70;;;;;;;;;;5144876;27;20408;-57
2023/12/12 08:27:18;;;;;;;24.70;12.82;;;;;;;;;;5145618;27;20057;-55
2023/12/12 08:29:45;;;;;;;27.08;12.52;;;;;;;;;;5143608;27;20062;-57
2023/12/12 08:32:12;;;;;;;26.88;12.55;;;;;;;;;;5145486;27;20081;-54
2023/12/12 08:34:38;;;;;;;29.25;12.85;;;;;;;;;;5144917;27;20049;-56
2023/12/12 08:37:05;;;;;;;27.23;12.73;;;;;;;;;;5145475;27;20558;-55
2023/12/12 08:39:31;;;;;;;22.80;13.05;;;;;;;;;;5145376;27;20055;-54
2023/12/12 08:41:58;;;;;;;31.88;13.85;;;;;;;;;;5145498;27;20433;-57
2023/12/12 08:44:24;;;;;;;30.65;13.85;;;;;;;;;;5144402;27;20527;-57
2023/12/12 08:46:50;;;;;;;31.10;13.68;;;;;;;;;;5145465;27;20506;-57
2023/12/12 08:49:20;;;;;;;35.15;14.07;;;;;;;;;;5145446;27;20058;-58
2023/12/12 08:51:47;;;;;;;28.45;13.80;;;;;;;;;;5145468;27;20488;-57
2023/12/12 08:54:14;;;;;;;40.13;13.68;;;;;;;;;;5145040;27;20059;-57
2023/12/12 08:56:42;;;;;;;34.75;14.18;;;;;;;;;;5144667;27;20047;-57
2023/12/12 08:59:09;;;;;;;35.22;14.40;;;;;;;;;;5144556;27;20054;-56
2023/12/12 09:01:35;;;;;;;35.90;14.82;;;;;;;;;;5145016;27;20351;-57
2023/12/12 09:04:02;;;;;;;36.25;16.15;;;;;;;;;;5142540;27;20062;-57
2023/12/12 09:06:29;;;;;;;36.20;15.70;;;;;;;;;;5145556;27;20055;-56
2023/12/12 09:08:55;;;;;;;38.85;15.27;;;;;;;;;;5145022;27;20054;-56
2023/12/12 09:11:21;;;;;;;31.17;14.25;;;;;;;;;;5147491;27;20182;-55
2023/12/12 09:13:48;;;;;;;37.38;15.13;;;;;;;;;;5134660;27;20175;-56
2023/12/12 09:16:14;;;;;;;36.22;14.93;;;;;;;;;;5145578;27;20489;-56
2023/12/12 09:18:41;;;;;;;40.85;15.15;;;;;;;;;;5140896;27;20169;-57
2023/12/12 09:21:07;;;;;;;38.47;14.10;;;;;;;;;;5141877;27;20051;-56
2023/12/12 09:23:38;;;;;;;34.58;14.55;;;;;;;;;;5128115;27;20510;-57
2023/12/12 09:26:04;;;;;;;47.65;15.75;;;;;;;;;;5144266;27;20059;-58
2023/12/12 09:28:31;;;;;;;39.17;14.05;;;;;;;;;;5142866;27;20078;-57
2023/12/12 09:30:57;;;;;;;40.95;14.95;;;;;;;;;;5144794;27;20062;-58
2023/12/12 09:33:23;;;;;;;40.72;14.48;;;;;;;;;;5144173;27;20066;-57
2023/12/12 09:35:51;;;;;;;37.10;13.40;;;;;;;;;;5144914;27;20499;-57
2023/12/12 09:38:18;;;;;;;42.13;14.48;;;;;;;;;;5144923;27;20142;-57
2023/12/12 09:40:45;;;;;;;36.97;13.00;;;;;;;;;;5144343;27;20095;-57
2023/12/12 09:43:12;;;;;;;34.90;13.57;;;;;;;;;;5144220;27;20055;-56
2023/12/12 09:45:43;;;;;;;38.28;12.38;;;;;;;;;;5123245;27;20113;-56
2023/12/12 09:48:09;;;;;;;50.67;15.38;;;;;;;;;;5123893;27;20086;-55
2023/12/12 09:50:36;;;;;;;32.30;12.23;;;;;;;;;;5143022;27;20497;-56
2023/12/12 09:53:02;;;;;;;33.50;12.93;;;;;;;;;;5144556;27;20047;-56
2023/12/12 09:55:29;;;;;;;34.75;12.23;;;;;;;;;;5143513;27;20493;-56
2023/12/12 09:57:56;;;;;;;35.95;12.40;;;;;;;;;;5144007;27;20128;-57
2023/12/12 10:00:24;;;;;;;38.60;12.65;;;;;;;;;;5143570;27;20590;-57
2023/12/12 10:02:55;;;;;;;32.58;11.07;;;;;;;;;;5144533;27;20126;-58
2023/12/12 10:05:21;;;;;;;37.00;11.93;;;;;;;;;;5144804;27;20059;-57
2023/12/12 10:07:49;;;;;;;30.48;10.27;;;;;;;;;;5143892;27;20520;-56
2023/12/12 10:10:26;;;;;;;29.20;10.10;;;;;;;;;;5142057;27;20134;-55
2023/12/12 10:12:53;;;;;;;24.33;11.25;;;;;;;;;;5143219;27;20047;-56
2023/12/12 10:15:23;;;;;;;31.50;10.43;;;;;;;;;;5143766;27;20533;-55
2023/12/12 10:17:57;;;;;;;22.98;9.10;;;;;;;;;;5144134;27;20078;-57
2023/12/12 10:20:25;;;;;;;30.75;9.95;;;;;;;;;;5142231;27;20135;-56
2023/12/12 10:22:53;;;;;;;34.15;10.98;;;;;;;;;;5144321;27;20051;-57
2023/12/12 10:25:22;;;;;;;32.15;11.73;;;;;;;;;;5143491;27;20577;-58
2023/12/12 10:27:52;;;;;;;27.20;9.98;;;;;;;;;;5143787;27;20051;-57
2023/12/12 10:30:21;;;;;;;35.33;10.85;;;;;;;;;;5144042;27;20055;-57
2023/12/12 10:32:50;;;;;;;34.58;13.48;;;;;;;;;;5142533;27;20112;-56
2023/12/12 10:35:17;;;;;;;24.60;11.00;;;;;;;;;;5142705;27;20467;-58
2023/12/12 10:37:43;;;;;;;29.45;11.05;;;;;;;;;;5143728;27;20426;-58
2023/12/12 10:40:12;;;;;;;29.60;10.43;;;;;;;;;;5143469;27;20587;-57
2023/12/12 10:42:42;;;;;;;51.40;19.80;;;;;;;;;;5142886;27;20058;-55
2023/12/12 10:45:12;;;;;;;29.38;9.45;;;;;;;;;;5143362;27;20495;-57
2023/12/12 10:47:40;;;;;;;25.20;9.20;;;;;;;;;;5143315;27;20511;-58
2023/12/12 10:50:09;;;;;;;33.05;10.25;;;;;;;;;;5134233;27;20147;-57
2023/12/12 10:52:36;;;;;;;27.70;9.43;;;;;;;;;;5123313;27;20054;-57
2023/12/12 10:55:02;;;;;;;34.40;10.05;;;;;;;;;;5137583;27;20043;-56
2023/12/12 10:57:30;;;;;;;31.90;8.73;;;;;;;;;;5146970;27;20465;-58
2023/12/12 10:59:56;;;;;;;27.63;9.65;;;;;;;;;;5146459;27;20485;-58
2023/12/12 11:02:31;;;;;;;28.85;9.45;;;;;;;;;;5144143;27;20517;-56
2023/12/12 11:04:58;;;;;;;31.73;12.00;;;;;;;;;;5146349;27;20062;-56
2023/12/12 11:07:24;;;;;;;29.35;9.63;;;;;;;;;;5147145;27;20358;-57
2023/12/12 11:09:51;;;;;;;28.92;9.30;;;;;;;;;;5146587;27;20494;-56
2023/12/12 11:12:20;;;;;;;30.90;9.70;;;;;;;;;;5146798;27;20055;-55
2023/12/12 11:14:46;;;;;;;33.35;12.98;;;;;;;;;;5146668;27;20365;-57
2023/12/12 11:17:14;;;;;;;27.88;11.00;;;;;;;;;;5146966;27;20083;-58
2023/12/12 11:19:40;;;;;;;27.48;10.07;;;;;;;;;;5146648;27;20059;-56
2023/12/12 11:22:07;;;;;;;29.77;12.13;;;;;;;;;;5146653;27;20058;-57
2023/12/12 11:24:52;;;;;;;30.15;9.98;;;;;;;;;;5145281;27;20051;-57
2023/12/12 11:27:18;;;;;;;25.13;8.10;;;;;;;;;;5147000;27;20127;-58
2023/12/12 11:29:45;;;;;;;21.52;8.27;;;;;;;;;;5147116;27;20289;-58
2023/12/12 11:32:13;;;;;;;23.25;9.40;;;;;;;;;;5147424;27;20163;-57
2023/12/12 11:34:41;;;;;;;20.65;8.10;;;;;;;;;;5146001;27;20074;-57
2023/12/12 11:37:08;;;;;;;24.73;8.00;;;;;;;;;;5147044;27;20493;-57
2023/12/12 11:39:41;;;;;;;26.48;8.40;;;;;;;;;;5145467;27;20083;-57
2023/12/12 11:42:17;;;;;;;23.83;7.90;;;;;;;;;;5146815;27;20059;-58
2023/12/12 11:44:47;;;;;;;24.50;9.63;;;;;;;;;;5145248;27;20055;-57
2023/12/12 11:47:14;;;;;;;21.23;8.10;;;;;;;;;;5145910;27;20094;-57
2023/12/12 11:49:43;;;;;;;25.13;7.07;;;;;;;;;;5145342;27;20603;-57
2023/12/12 11:52:10;;;;;;;26.85;7.70;;;;;;;;;;5143743;27;20071;-57
2023/12/12 11:54:38;;;;;;;27.42;9.15;;;;;;;;;;5145114;27;20054;-57
2023/12/12 11:57:05;;;;;;;19.85;8.25;;;;;;;;;;5143825;27;20492;-57
2023/12/12 11:59:34;;;;;;;25.15;7.38;;;;;;;;;;5131381;27;20566;-57
2023/12/12 12:02:01;;;;;;;23.80;8.75;;;;;;;;;;5144782;27;20108;-58
2023/12/12 12:04:27;;;;;;;26.42;9.18;;;;;;;;;;5145699;27;20739;-57
2023/12/12 12:06:54;;;;;;;20.50;8.50;;;;;;;;;;5144212;27;20132;-57
2023/12/12 12:09:21;;;;;;;21.05;8.88;;;;;;;;;;5134709;27;20539;-56
2023/12/12 12:11:48;;;;;;;19.52;7.93;;;;;;;;;;5135236;27;20051;-57
2023/12/12 12:14:16;;;;;;;22.48;7.97;;;;;;;;;;5124895;27;20138;-56
2023/12/12 12:16:42;;;;;;;23.80;8.20;;;;;;;;;;5145942;27;20134;-58
2023/12/12 12:19:28;;;;;;;22.05;8.20;;;;;;;;;;5145893;27;20051;-58
2023/12/12 12:21:55;;;;;;;24.00;8.88;;;;;;;;;;5132401;27;20595;-57
2023/12/12 12:24:22;;;;;;;19.98;8.57;;;;;;;;;;5126067;27;20193;-57
2023/12/12 12:26:48;;;;;;;23.08;8.48;;;;;;;;;;5145346;27;20522;-56
2023/12/12 12:29:15;;;;;;;17.83;6.95;;;;;;;;;;5134942;27;20058;-57
2023/12/12 12:31:42;;;;;;;29.25;8.57;;;;;;;;;;5144750;27;20108;-57
2023/12/12 12:34:18;;;;;;;19.80;7.85;;;;;;;;;;5144914;27;20055;-57
2023/12/12 12:36:48;;;;;;;24.08;7.45;;;;;;;;;;5145351;27;20051;-58
2023/12/12 12:39:18;;;;;;;20.60;7.00;;;;;;;;;;5145153;27;20047;-57
2023/12/12 12:41:46;;;;;;;22.00;7.22;;;;;;;;;;5145739;27;20513;-58
2023/12/12 12:44:13;;;;;;;22.13;8.70;;;;;;;;;;5146478;27;20051;-58
2023/12/12 12:46:47;;;;;;;20.42;8.13;;;;;;;;;;5144841;27;20047;-58
2023/12/12 12:49:13;;;;;;;16.60;7.18;;;;;;;;;;5145698;27;20055;-57
2023/12/12 12:51:40;;;;;;;26.15;8.52;;;;;;;;;;5144336;27;20057;-55
2023/12/12 12:54:06;;;;;;;16.48;7.60;;;;;;;;;;5144843;27;20086;-58
2023/12/12 12:56:33;;;;;;;19.98;7.28;;;;;;;;;;5144414;27;20128;-57
2023/12/12 12:58:59;;;;;;;19.05;6.90;;;;;;;;;;5144906;27;20051;-56
2023/12/12 13:01:26;;;;;;;20.05;7.38;;;;;;;;;;5144552;27;20104;-57
2023/12/12 13:03:53;;;;;;;21.17;7.70;;;;;;;;;;5145349;27;20051;-56
2023/12/12 13:06:19;;;;;;;23.13;6.85;;;;;;;;;;5144433;27;20055;-57
2023/12/12 13:08:46;;;;;;;26.08;8.07;;;;;;;;;;5144587;27;20097;-57
2023/12/12 13:11:12;;;;;;;20.65;7.20;;;;;;;;;;5144632;27;20055;-58
2023/12/12 13:13:41;;;;;;;28.63;7.88;;;;;;;;;;5133763;27;20047;-58
2023/12/12 13:16:07;;;;;;;24.95;8.82;;;;;;;;;;5142179;27;20142;-57
2023/12/12 13:18:34;;;;;;;23.83;8.85;;;;;;;;;;5143148;27;20589;-56
2023/12/12 13:21:00;;;;;;;16.98;7.68;;;;;;;;;;5144787;27;20100;-56
2023/12/12 13:23:27;;;;;;;22.73;7.70;;;;;;;;;;5141391;27;20056;-56
2023/12/12 13:25:54;;;;;;;21.05;7.68;;;;;;;;;;5142313;27;20062;-56
2023/12/12 13:28:20;;;;;;;17.80;7.70;;;;;;;;;;5144916;27;20051;-57
2023/12/12 13:30:47;;;;;;;18.60;7.85;;;;;;;;;;5133136;27;20151;-58
2023/12/12 13:33:13;;;;;;;14.73;7.15;;;;;;;;;;5143824;27;20059;-57
2023/12/12 13:35:40;;;;;;;13.80;6.35;;;;;;;;;;5142242;27;20112;-58
2023/12/12 13:38:07;;;;;;;15.50;5.25;;;;;;;;;;5144496;27;20055;-59
2023/12/12 13:40:33;;;;;;;14.90;5.72;;;;;;;;;;5143926;27;20055;-57
2023/12/12 13:43:00;;;;;;;13.18;5.45;;;;;;;;;;5142750;27;20424;-57
2023/12/12 13:45:26;;;;;;;8.02;4.43;;;;;;;;;;5144205;27;20055;-57
2023/12/12 13:47:53;;;;;;;12.07;5.25;;;;;;;;;;5144335;27;20050;-58
2023/12/12 13:50:20;;;;;;;12.95;5.75;;;;;;;;;;5153892;27;20401;-58
2023/12/12 13:52:46;;;;;;;9.93;5.38;;;;;;;;;;5143187;27;20527;-58
2023/12/12 13:55:13;;;;;;;15.00;5.90;;;;;;;;;;5144614;27;20062;-57
2023/12/12 13:57:39;;;;;;;9.40;5.00;;;;;;;;;;5144164;27;20055;-58
2023/12/12 14:00:08;;;;;;;14.07;5.72;;;;;;;;;;5144295;27;20145;-57
2023/12/12 14:02:36;;;;;;;8.70;5.82;;;;;;;;;;5143413;27;20051;-57
2023/12/12 14:05:03;;;;;;;9.45;5.53;;;;;;;;;;5143594;27;20541;-58
2023/12/12 14:07:30;;;;;;;14.63;5.93;;;;;;;;;;5138562;27;20051;-57
2023/12/12 14:09:57;;;;;;;20.42;6.40;;;;;;;;;;5126619;27;20180;-60
2023/12/12 14:12:23;;;;;;;12.50;5.75;;;;;;;;;;5142933;27;20055;-58
2023/12/12 14:14:50;;;;;;;12.00;5.68;;;;;;;;;;5144226;27;20497;-58
2023/12/12 14:17:17;;;;;;;12.05;6.03;;;;;;;;;;5143357;27;20051;-57
2023/12/12 14:19:43;;;;;;;14.27;6.55;;;;;;;;;;5143517;27;20054;-58
2023/12/12 14:22:10;;;;;;;9.10;5.60;;;;;;;;;;5144127;27;20140;-58
2023/12/12 14:24:39;;;;;;;11.93;6.10;;;;;;;;;;5143202;27;20114;-57